sensor_id;sensor_type;location;lat;lon;timestamp;P1;durP1;ratioP1;P2;durP2;ratioP2
37559;SDS011;23398;50.928;7.084;2023-11-21T00:00:44;3.95;;;2.50;;
37559;SDS011;23398;50.928;7.084;2023-11-21T00:03:11;3.95;;;1.98;;
37559;SDS011;23398;50.928;7.084;2023-11-21T00:05:39;2.20;;;1.92;;
37559;SDS011;23398;50.928;7.084;2023-11-21T00:08:06;3.10;;;1.92;;
37559;SDS011;23398;50.928;7.084;2023-11-21T00:10:32;3.20;;;2.13;;
37559;SDS011;23398;50.928;7.084;2023-11-21T00:12:59;3.03;;;2.20;;
37559;SDS011;23398;50.928;7.084;2023-11-21T00:15:24;5.53;;;2.30;;
37559;SDS011;23398;50.928;7.084;2023-11-21T00:17:51;3.53;;;2.40;;
37559;SDS011;23398;50.928;7.084;2023-11-21T00:20:17;3.30;;;2.30;;
37559;SDS011;23398;50.928;7.084;2023-11-21T00:22:42;3.85;;;2.50;;
37559;SDS011;23398;50.928;7.084;2023-11-21T00:25:08;3.78;;;2.60;;
37559;SDS011;23398;50.928;7.084;2023-11-21T00:27:34;3.75;;;2.60;;
37559;SDS011;23398;50.928;7.084;2023-11-21T00:30:00;4.68;;;2.40;;
37559;SDS011;23398;50.928;7.084;2023-11-21T00:32:26;3.38;;;2.60;;
37559;SDS011;23398;50.928;7.084;2023-11-21T00:34:52;4.68;;;2.63;;
37559;SDS011;23398;50.928;7.084;2023-11-21T00:37:19;4.88;;;2.63;;
37559;SDS011;23398;50.928;7.084;2023-11-21T00:39:45;3.85;;;2.88;;
37559;SDS011;23398;50.928;7.084;2023-11-21T00:42:10;3.40;;;2.60;;
37559;SDS011;23398;50.928;7.084;2023-11-21T00:44:37;3.83;;;2.75;;
37559;SDS011;23398;50.928;7.084;2023-11-21T00:47:04;3.17;;;2.88;;
37559;SDS011;23398;50.928;7.084;2023-11-21T00:49:30;3.88;;;3.00;;
37559;SDS011;23398;50.928;7.084;2023-11-21T00:51:55;3.70;;;2.97;;
37559;SDS011;23398;50.928;7.084;2023-11-21T00:54:23;5.03;;;2.95;;
37559;SDS011;23398;50.928;7.084;2023-11-21T00:56:48;5.78;;;2.80;;
37559;SDS011;23398;50.928;7.084;2023-11-21T00:59:14;3.60;;;2.85;;
37559;SDS011;23398;50.928;7.084;2023-11-21T01:01:39;3.55;;;2.28;;
37559;SDS011;23398;50.928;7.084;2023-11-21T01:04:05;3.42;;;2.30;;
37559;SDS011;23398;50.928;7.084;2023-11-21T01:06:32;3.90;;;2.70;;
37559;SDS011;23398;50.928;7.084;2023-11-21T01:08:58;3.33;;;2.33;;
37559;SDS011;23398;50.928;7.084;2023-11-21T01:11:23;4.28;;;2.45;;
37559;SDS011;23398;50.928;7.084;2023-11-21T01:13:49;3.67;;;2.40;;
37559;SDS011;23398;50.928;7.084;2023-11-21T01:16:14;3.55;;;2.47;;
37559;SDS011;23398;50.928;7.084;2023-11-21T01:18:40;3.15;;;2.40;;
37559;SDS011;23398;50.928;7.084;2023-11-21T01:21:06;4.38;;;2.58;;
37559;SDS011;23398;50.928;7.084;2023-11-21T01:23:32;3.10;;;2.50;;
37559;SDS011;23398;50.928;7.084;2023-11-21T01:25:58;3.90;;;2.97;;
37559;SDS011;23398;50.928;7.084;2023-11-21T01:28:23;3.85;;;2.90;;
37559;SDS011;23398;50.928;7.084;2023-11-21T01:30:49;3.50;;;2.60;;
37559;SDS011;23398;50.928;7.084;2023-11-21T01:33:15;6.45;;;2.55;;
37559;SDS011;23398;50.928;7.084;2023-11-21T01:35:44;73.45;;;5.45;;
37559;SDS011;23398;50.928;7.084;2023-11-21T01:38:11;3.15;;;2.17;;
37559;SDS011;23398;50.928;7.084;2023-11-21T01:40:37;4.00;;;2.70;;
37559;SDS011;23398;50.928;7.084;2023-11-21T01:43:02;4.25;;;2.40;;
37559;SDS011;23398;50.928;7.084;2023-11-21T01:45:28;2.38;;;2.05;;
37559;SDS011;23398;50.928;7.084;2023-11-21T01:47:56;2.25;;;1.80;;
37559;SDS011;23398;50.928;7.084;2023-11-21T01:50:23;3.28;;;2.53;;
37559;SDS011;23398;50.928;7.084;2023-11-21T01:52:50;3.25;;;2.75;;
37559;SDS011;23398;50.928;7.084;2023-11-21T01:55:16;5.97;;;2.80;;
37559;SDS011;23398;50.928;7.084;2023-11-21T01:57:43;2.90;;;2.60;;
37559;SDS011;23398;50.928;7.084;2023-11-21T02:00:10;4.93;;;2.95;;
37559;SDS011;23398;50.928;7.084;2023-11-21T02:02:45;4.40;;;2.80;;
37559;SDS011;23398;50.928;7.084;2023-11-21T02:05:11;5.40;;;3.05;;
37559;SDS011;23398;50.928;7.084;2023-11-21T02:07:39;4.30;;;2.80;;
37559;SDS011;23398;50.928;7.084;2023-11-21T02:10:06;4.35;;;2.80;;
37559;SDS011;23398;50.928;7.084;2023-11-21T02:12:32;2.53;;;2.22;;
37559;SDS011;23398;50.928;7.084;2023-11-21T02:14:58;3.25;;;2.47;;
37559;SDS011;23398;50.928;7.084;2023-11-21T02:17:23;5.03;;;2.80;;
37559;SDS011;23398;50.928;7.084;2023-11-21T02:19:50;5.25;;;2.97;;
37559;SDS011;23398;50.928;7.084;2023-11-21T02:22:16;4.90;;;2.92;;
37559;SDS011;23398;50.928;7.084;2023-11-21T02:24:43;5.35;;;2.78;;
37559;SDS011;23398;50.928;7.084;2023-11-21T02:27:12;3.45;;;2.40;;
37559;SDS011;23398;50.928;7.084;2023-11-21T02:29:38;15.85;;;2.88;;
37559;SDS011;23398;50.928;7.084;2023-11-21T02:32:03;3.40;;;2.10;;
37559;SDS011;23398;50.928;7.084;2023-11-21T02:34:29;4.20;;;1.98;;
37559;SDS011;23398;50.928;7.084;2023-11-21T02:36:54;2.67;;;1.95;;
37559;SDS011;23398;50.928;7.084;2023-11-21T02:39:22;2.50;;;1.70;;
37559;SDS011;23398;50.928;7.084;2023-11-21T02:41:49;8.82;;;2.20;;
37559;SDS011;23398;50.928;7.084;2023-11-21T02:44:15;4.20;;;2.72;;
37559;SDS011;23398;50.928;7.084;2023-11-21T02:46:40;6.80;;;3.20;;
37559;SDS011;23398;50.928;7.084;2023-11-21T02:49:06;4.85;;;3.30;;
37559;SDS011;23398;50.928;7.084;2023-11-21T02:51:32;3.22;;;2.50;;
37559;SDS011;23398;50.928;7.084;2023-11-21T02:53:58;2.63;;;2.25;;
37559;SDS011;23398;50.928;7.084;2023-11-21T02:56:25;2.40;;;2.20;;
37559;SDS011;23398;50.928;7.084;2023-11-21T02:58:51;2.30;;;2.10;;
37559;SDS011;23398;50.928;7.084;2023-11-21T03:01:17;3.33;;;2.60;;
37559;SDS011;23398;50.928;7.084;2023-11-21T03:03:43;4.60;;;3.03;;
37559;SDS011;23398;50.928;7.084;2023-11-21T03:06:08;4.82;;;3.25;;
37559;SDS011;23398;50.928;7.084;2023-11-21T03:08:34;4.68;;;2.92;;
37559;SDS011;23398;50.928;7.084;2023-11-21T03:11:00;3.78;;;3.35;;
37559;SDS011;23398;50.928;7.084;2023-11-21T03:13:28;4.47;;;3.63;;
37559;SDS011;23398;50.928;7.084;2023-11-21T03:15:54;4.15;;;3.33;;
37559;SDS011;23398;50.928;7.084;2023-11-21T03:18:19;5.95;;;3.58;;
37559;SDS011;23398;50.928;7.084;2023-11-21T03:20:47;3.90;;;2.97;;
37559;SDS011;23398;50.928;7.084;2023-11-21T03:23:12;6.15;;;4.28;;
37559;SDS011;23398;50.928;7.084;2023-11-21T03:25:38;4.53;;;3.42;;
37559;SDS011;23398;50.928;7.084;2023-11-21T03:28:04;4.22;;;3.33;;
37559;SDS011;23398;50.928;7.084;2023-11-21T03:30:29;5.50;;;3.88;;
37559;SDS011;23398;50.928;7.084;2023-11-21T03:32:55;6.90;;;4.07;;
37559;SDS011;23398;50.928;7.084;2023-11-21T03:35:21;4.70;;;3.95;;
37559;SDS011;23398;50.928;7.084;2023-11-21T03:37:47;6.55;;;4.07;;
37559;SDS011;23398;50.928;7.084;2023-11-21T03:40:12;7.80;;;4.10;;
37559;SDS011;23398;50.928;7.084;2023-11-21T03:42:39;6.68;;;4.15;;
37559;SDS011;23398;50.928;7.084;2023-11-21T03:45:07;5.63;;;4.05;;
37559;SDS011;23398;50.928;7.084;2023-11-21T03:47:34;9.48;;;4.53;;
37559;SDS011;23398;50.928;7.084;2023-11-21T03:49:59;6.55;;;4.63;;
37559;SDS011;23398;50.928;7.084;2023-11-21T03:52:25;6.70;;;4.28;;
37559;SDS011;23398;50.928;7.084;2023-11-21T03:54:53;5.45;;;3.92;;
37559;SDS011;23398;50.928;7.084;2023-11-21T03:57:20;4.97;;;3.80;;
37559;SDS011;23398;50.928;7.084;2023-11-21T03:59:46;5.30;;;3.95;;
37559;SDS011;23398;50.928;7.084;2023-11-21T04:02:12;5.82;;;4.13;;
37559;SDS011;23398;50.928;7.084;2023-11-21T04:04:37;5.00;;;4.07;;
37559;SDS011;23398;50.928;7.084;2023-11-21T04:07:03;6.35;;;3.67;;
37559;SDS011;23398;50.928;7.084;2023-11-21T04:09:29;7.30;;;4.05;;
37559;SDS011;23398;50.928;7.084;2023-11-21T04:11:55;8.48;;;3.95;;
37559;SDS011;23398;50.928;7.084;2023-11-21T04:14:20;5.15;;;3.70;;
37559;SDS011;23398;50.928;7.084;2023-11-21T04:16:47;6.32;;;3.75;;
37559;SDS011;23398;50.928;7.084;2023-11-21T04:19:13;5.50;;;3.60;;
37559;SDS011;23398;50.928;7.084;2023-11-21T04:21:42;5.85;;;4.10;;
37559;SDS011;23398;50.928;7.084;2023-11-21T04:24:08;6.40;;;3.90;;
37559;SDS011;23398;50.928;7.084;2023-11-21T04:26:34;5.22;;;4.18;;
37559;SDS011;23398;50.928;7.084;2023-11-21T04:28:59;5.90;;;4.20;;
37559;SDS011;23398;50.928;7.084;2023-11-21T04:31:25;7.85;;;4.70;;
37559;SDS011;23398;50.928;7.084;2023-11-21T04:33:50;6.05;;;4.75;;
37559;SDS011;23398;50.928;7.084;2023-11-21T04:36:16;5.60;;;4.75;;
37559;SDS011;23398;50.928;7.084;2023-11-21T04:38:42;6.70;;;4.80;;
37559;SDS011;23398;50.928;7.084;2023-11-21T04:41:07;7.78;;;5.00;;
37559;SDS011;23398;50.928;7.084;2023-11-21T04:43:33;7.35;;;5.20;;
37559;SDS011;23398;50.928;7.084;2023-11-21T04:45:59;7.03;;;4.78;;
37559;SDS011;23398;50.928;7.084;2023-11-21T04:48:25;7.75;;;4.97;;
37559;SDS011;23398;50.928;7.084;2023-11-21T04:50:50;7.72;;;4.95;;
37559;SDS011;23398;50.928;7.084;2023-11-21T04:53:16;7.85;;;5.00;;
37559;SDS011;23398;50.928;7.084;2023-11-21T04:55:42;5.25;;;4.70;;
37559;SDS011;23398;50.928;7.084;2023-11-21T04:58:08;7.55;;;4.70;;
37559;SDS011;23398;50.928;7.084;2023-11-21T05:00:34;6.60;;;4.15;;
37559;SDS011;23398;50.928;7.084;2023-11-21T05:03:01;7.72;;;4.65;;
37559;SDS011;23398;50.928;7.084;2023-11-21T05:05:28;5.57;;;4.35;;
37559;SDS011;23398;50.928;7.084;2023-11-21T05:07:54;6.78;;;4.63;;
37559;SDS011;23398;50.928;7.084;2023-11-21T05:10:20;7.75;;;4.30;;
37559;SDS011;23398;50.928;7.084;2023-11-21T05:12:47;6.28;;;4.38;;
37559;SDS011;23398;50.928;7.084;2023-11-21T05:15:15;6.43;;;4.13;;
37559;SDS011;23398;50.928;7.084;2023-11-21T05:17:42;4.50;;;3.60;;
37559;SDS011;23398;50.928;7.084;2023-11-21T05:20:09;5.85;;;4.20;;
37559;SDS011;23398;50.928;7.084;2023-11-21T05:22:37;5.97;;;3.88;;
37559;SDS011;23398;50.928;7.084;2023-11-21T05:25:03;8.73;;;4.57;;
37559;SDS011;23398;50.928;7.084;2023-11-21T05:27:29;6.00;;;3.63;;
37559;SDS011;23398;50.928;7.084;2023-11-21T05:29:56;7.22;;;3.45;;
37559;SDS011;23398;50.928;7.084;2023-11-21T05:32:22;6.47;;;3.88;;
37559;SDS011;23398;50.928;7.084;2023-11-21T05:34:48;5.00;;;3.63;;
37559;SDS011;23398;50.928;7.084;2023-11-21T05:37:14;4.97;;;3.55;;
37559;SDS011;23398;50.928;7.084;2023-11-21T05:39:39;4.90;;;3.67;;
37559;SDS011;23398;50.928;7.084;2023-11-21T05:42:05;7.03;;;3.88;;
37559;SDS011;23398;50.928;7.084;2023-11-21T05:44:31;6.05;;;4.38;;
37559;SDS011;23398;50.928;7.084;2023-11-21T05:46:57;6.97;;;4.70;;
37559;SDS011;23398;50.928;7.084;2023-11-21T05:49:23;6.63;;;3.50;;
37559;SDS011;23398;50.928;7.084;2023-11-21T05:51:51;5.68;;;3.85;;
37559;SDS011;23398;50.928;7.084;2023-11-21T05:54:19;4.40;;;3.80;;
37559;SDS011;23398;50.928;7.084;2023-11-21T05:56:45;6.00;;;4.00;;
37559;SDS011;23398;50.928;7.084;2023-11-21T05:59:12;7.10;;;4.63;;
37559;SDS011;23398;50.928;7.084;2023-11-21T06:01:37;6.53;;;3.97;;
37559;SDS011;23398;50.928;7.084;2023-11-21T06:04:03;5.82;;;4.22;;
37559;SDS011;23398;50.928;7.084;2023-11-21T06:06:30;5.25;;;4.22;;
37559;SDS011;23398;50.928;7.084;2023-11-21T06:08:56;5.80;;;4.10;;
37559;SDS011;23398;50.928;7.084;2023-11-21T06:11:22;6.55;;;3.97;;
37559;SDS011;23398;50.928;7.084;2023-11-21T06:13:47;5.57;;;4.20;;
37559;SDS011;23398;50.928;7.084;2023-11-21T06:16:14;7.97;;;4.18;;
37559;SDS011;23398;50.928;7.084;2023-11-21T06:18:42;6.97;;;4.50;;
37559;SDS011;23398;50.928;7.084;2023-11-21T06:21:11;6.85;;;4.20;;
37559;SDS011;23398;50.928;7.084;2023-11-21T06:23:37;5.03;;;4.10;;
37559;SDS011;23398;50.928;7.084;2023-11-21T06:26:03;7.00;;;4.45;;
37559;SDS011;23398;50.928;7.084;2023-11-21T06:28:29;5.35;;;4.03;;
37559;SDS011;23398;50.928;7.084;2023-11-21T06:30:55;5.85;;;4.25;;
37559;SDS011;23398;50.928;7.084;2023-11-21T06:33:23;6.32;;;4.25;;
37559;SDS011;23398;50.928;7.084;2023-11-21T06:35:48;5.65;;;4.40;;
37559;SDS011;23398;50.928;7.084;2023-11-21T06:38:14;8.05;;;4.32;;
37559;SDS011;23398;50.928;7.084;2023-11-21T06:40:40;7.00;;;4.35;;
37559;SDS011;23398;50.928;7.084;2023-11-21T06:43:06;7.03;;;4.50;;
37559;SDS011;23398;50.928;7.084;2023-11-21T06:45:32;8.23;;;4.63;;
37559;SDS011;23398;50.928;7.084;2023-11-21T06:47:59;7.80;;;4.75;;
37559;SDS011;23398;50.928;7.084;2023-11-21T06:50:25;6.03;;;4.55;;
37559;SDS011;23398;50.928;7.084;2023-11-21T06:52:50;5.53;;;4.22;;
37559;SDS011;23398;50.928;7.084;2023-11-21T06:55:16;5.30;;;4.40;;
37559;SDS011;23398;50.928;7.084;2023-11-21T06:57:42;5.85;;;4.90;;
37559;SDS011;23398;50.928;7.084;2023-11-21T07:00:08;9.18;;;4.93;;
37559;SDS011;23398;50.928;7.084;2023-11-21T07:02:34;6.78;;;4.80;;
37559;SDS011;23398;50.928;7.084;2023-11-21T07:05:00;6.10;;;4.65;;
37559;SDS011;23398;50.928;7.084;2023-11-21T07:07:26;7.78;;;4.78;;
37559;SDS011;23398;50.928;7.084;2023-11-21T07:09:52;8.02;;;4.90;;
37559;SDS011;23398;50.928;7.084;2023-11-21T07:12:18;7.53;;;5.55;;
37559;SDS011;23398;50.928;7.084;2023-11-21T07:14:44;9.70;;;5.38;;
37559;SDS011;23398;50.928;7.084;2023-11-21T07:17:10;7.68;;;5.80;;
37559;SDS011;23398;50.928;7.084;2023-11-21T07:19:39;9.18;;;5.80;;
37559;SDS011;23398;50.928;7.084;2023-11-21T07:22:06;9.50;;;5.85;;
37559;SDS011;23398;50.928;7.084;2023-11-21T07:24:33;8.50;;;5.82;;
37559;SDS011;23398;50.928;7.084;2023-11-21T07:27:00;10.57;;;6.45;;
37559;SDS011;23398;50.928;7.084;2023-11-21T07:29:26;8.75;;;6.10;;
37559;SDS011;23398;50.928;7.084;2023-11-21T07:31:54;10.02;;;5.97;;
37559;SDS011;23398;50.928;7.084;2023-11-21T07:34:20;9.43;;;6.05;;
37559;SDS011;23398;50.928;7.084;2023-11-21T07:36:46;11.43;;;5.95;;
37559;SDS011;23398;50.928;7.084;2023-11-21T07:39:12;12.45;;;5.97;;
37559;SDS011;23398;50.928;7.084;2023-11-21T07:41:40;10.55;;;6.18;;
37559;SDS011;23398;50.928;7.084;2023-11-21T07:44:10;13.15;;;6.65;;
37559;SDS011;23398;50.928;7.084;2023-11-21T07:46:35;9.52;;;6.40;;
37559;SDS011;23398;50.928;7.084;2023-11-21T07:49:01;10.05;;;6.53;;
37559;SDS011;23398;50.928;7.084;2023-11-21T07:51:27;10.50;;;6.65;;
37559;SDS011;23398;50.928;7.084;2023-11-21T07:53:52;10.15;;;6.95;;
37559;SDS011;23398;50.928;7.084;2023-11-21T07:56:18;14.07;;;7.90;;
37559;SDS011;23398;50.928;7.084;2023-11-21T07:58:43;12.00;;;6.97;;
37559;SDS011;23398;50.928;7.084;2023-11-21T08:01:09;11.57;;;7.93;;
37559;SDS011;23398;50.928;7.084;2023-11-21T08:03:35;12.38;;;7.63;;
37559;SDS011;23398;50.928;7.084;2023-11-21T08:06:01;11.20;;;7.63;;
37559;SDS011;23398;50.928;7.084;2023-11-21T08:08:28;12.15;;;7.72;;
37559;SDS011;23398;50.928;7.084;2023-11-21T08:10:54;13.40;;;6.95;;
37559;SDS011;23398;50.928;7.084;2023-11-21T08:13:26;12.73;;;7.15;;
37559;SDS011;23398;50.928;7.084;2023-11-21T08:15:56;15.57;;;7.60;;
37559;SDS011;23398;50.928;7.084;2023-11-21T08:18:26;12.45;;;7.90;;
37559;SDS011;23398;50.928;7.084;2023-11-21T08:20:52;10.90;;;6.97;;
37559;SDS011;23398;50.928;7.084;2023-11-21T08:23:20;13.00;;;7.13;;
37559;SDS011;23398;50.928;7.084;2023-11-21T08:25:45;11.50;;;7.40;;
37559;SDS011;23398;50.928;7.084;2023-11-21T08:28:12;11.98;;;7.53;;
37559;SDS011;23398;50.928;7.084;2023-11-21T08:30:41;12.63;;;7.45;;
37559;SDS011;23398;50.928;7.084;2023-11-21T08:33:07;12.23;;;7.63;;
37559;SDS011;23398;50.928;7.084;2023-11-21T08:35:33;11.07;;;7.10;;
37559;SDS011;23398;50.928;7.084;2023-11-21T08:37:59;14.70;;;7.72;;
37559;SDS011;23398;50.928;7.084;2023-11-21T08:40:25;14.85;;;8.25;;
37559;SDS011;23398;50.928;7.084;2023-11-21T08:42:51;12.27;;;7.72;;
37559;SDS011;23398;50.928;7.084;2023-11-21T08:45:20;14.00;;;8.30;;
37559;SDS011;23398;50.928;7.084;2023-11-21T08:47:47;11.25;;;7.75;;
37559;SDS011;23398;50.928;7.084;2023-11-21T08:50:12;13.40;;;7.38;;
37559;SDS011;23398;50.928;7.084;2023-11-21T08:52:39;14.60;;;8.10;;
37559;SDS011;23398;50.928;7.084;2023-11-21T08:55:06;12.95;;;8.43;;
37559;SDS011;23398;50.928;7.084;2023-11-21T08:57:37;13.40;;;8.75;;
37559;SDS011;23398;50.928;7.084;2023-11-21T09:00:04;11.65;;;7.90;;
37559;SDS011;23398;50.928;7.084;2023-11-21T09:02:32;13.43;;;8.30;;
37559;SDS011;23398;50.928;7.084;2023-11-21T09:04:59;15.10;;;8.18;;
37559;SDS011;23398;50.928;7.084;2023-11-21T09:07:28;15.73;;;9.02;;
37559;SDS011;23398;50.928;7.084;2023-11-21T09:09:54;13.00;;;8.55;;
37559;SDS011;23398;50.928;7.084;2023-11-21T09:12:20;16.40;;;9.23;;
37559;SDS011;23398;50.928;7.084;2023-11-21T09:14:45;13.10;;;9.02;;
37559;SDS011;23398;50.928;7.084;2023-11-21T09:17:11;17.13;;;9.90;;
37559;SDS011;23398;50.928;7.084;2023-11-21T09:19:37;14.93;;;9.60;;
37559;SDS011;23398;50.928;7.084;2023-11-21T09:22:03;13.95;;;9.80;;
37559;SDS011;23398;50.928;7.084;2023-11-21T09:24:30;18.52;;;9.95;;
37559;SDS011;23398;50.928;7.084;2023-11-21T09:26:56;17.52;;;9.60;;
37559;SDS011;23398;50.928;7.084;2023-11-21T09:29:22;18.52;;;10.63;;
37559;SDS011;23398;50.928;7.084;2023-11-21T09:31:47;16.48;;;10.18;;
37559;SDS011;23398;50.928;7.084;2023-11-21T09:34:16;16.02;;;10.80;;
37559;SDS011;23398;50.928;7.084;2023-11-21T09:36:43;14.73;;;10.07;;
37559;SDS011;23398;50.928;7.084;2023-11-21T09:39:10;17.50;;;11.27;;
37559;SDS011;23398;50.928;7.084;2023-11-21T09:44:09;19.40;;;11.52;;
37559;SDS011;23398;50.928;7.084;2023-11-21T09:46:40;15.73;;;10.75;;
37559;SDS011;23398;50.928;7.084;2023-11-21T09:49:08;17.17;;;11.65;;
37559;SDS011;23398;50.928;7.084;2023-11-21T09:51:39;17.65;;;11.52;;
37559;SDS011;23398;50.928;7.084;2023-11-21T09:54:07;22.30;;;11.70;;
37559;SDS011;23398;50.928;7.084;2023-11-21T09:56:35;19.23;;;11.95;;
37559;SDS011;23398;50.928;7.084;2023-11-21T09:59:01;21.58;;;11.93;;
37559;SDS011;23398;50.928;7.084;2023-11-21T10:01:31;22.08;;;12.40;;
37559;SDS011;23398;50.928;7.084;2023-11-21T10:03:59;18.52;;;12.60;;
37559;SDS011;23398;50.928;7.084;2023-11-21T10:06:25;21.38;;;13.80;;
37559;SDS011;23398;50.928;7.084;2023-11-21T10:08:52;18.73;;;13.02;;
37559;SDS011;23398;50.928;7.084;2023-11-21T10:11:19;17.48;;;12.20;;
37559;SDS011;23398;50.928;7.084;2023-11-21T10:13:46;20.13;;;13.20;;
37559;SDS011;23398;50.928;7.084;2023-11-21T10:16:15;21.02;;;13.45;;
37559;SDS011;23398;50.928;7.084;2023-11-21T10:18:46;17.85;;;12.63;;
37559;SDS011;23398;50.928;7.084;2023-11-21T10:21:17;19.85;;;12.27;;
37559;SDS011;23398;50.928;7.084;2023-11-21T10:23:43;19.67;;;13.15;;
37559;SDS011;23398;50.928;7.084;2023-11-21T10:26:10;20.58;;;13.60;;
37559;SDS011;23398;50.928;7.084;2023-11-21T10:28:41;19.63;;;12.40;;
37559;SDS011;23398;50.928;7.084;2023-11-21T10:31:24;19.02;;;12.15;;
37559;SDS011;23398;50.928;7.084;2023-11-21T10:33:56;18.52;;;12.77;;
37559;SDS011;23398;50.928;7.084;2023-11-21T10:36:43;16.58;;;11.60;;
37559;SDS011;23398;50.928;7.084;2023-11-21T10:39:09;17.98;;;12.00;;
37559;SDS011;23398;50.928;7.084;2023-11-21T10:41:43;19.52;;;11.60;;
37559;SDS011;23398;50.928;7.084;2023-11-21T10:44:15;18.25;;;12.05;;
37559;SDS011;23398;50.928;7.084;2023-11-21T10:46:48;18.40;;;11.88;;
37559;SDS011;23398;50.928;7.084;2023-11-21T10:49:26;20.10;;;12.73;;
37559;SDS011;23398;50.928;7.084;2023-11-21T10:51:52;18.98;;;13.18;;
37559;SDS011;23398;50.928;7.084;2023-11-21T10:54:23;20.88;;;13.02;;
37559;SDS011;23398;50.928;7.084;2023-11-21T10:56:50;18.88;;;12.45;;
37559;SDS011;23398;50.928;7.084;2023-11-21T10:59:21;17.92;;;12.00;;
37559;SDS011;23398;50.928;7.084;2023-11-21T11:01:50;18.17;;;12.30;;
37559;SDS011;23398;50.928;7.084;2023-11-21T11:04:20;17.33;;;12.15;;
37559;SDS011;23398;50.928;7.084;2023-11-21T11:07:08;16.65;;;11.45;;
37559;SDS011;23398;50.928;7.084;2023-11-21T11:09:34;19.80;;;13.18;;
37559;SDS011;23398;50.928;7.084;2023-11-21T11:12:01;18.15;;;12.00;;
37559;SDS011;23398;50.928;7.084;2023-11-21T11:14:29;19.95;;;13.77;;
37559;SDS011;23398;50.928;7.084;2023-11-21T11:16:55;20.63;;;13.75;;
37559;SDS011;23398;50.928;7.084;2023-11-21T11:19:21;19.35;;;13.88;;
37559;SDS011;23398;50.928;7.084;2023-11-21T11:21:50;22.67;;;15.05;;
37559;SDS011;23398;50.928;7.084;2023-11-21T11:25:07;22.95;;;13.98;;
37559;SDS011;23398;50.928;7.084;2023-11-21T11:27:40;21.70;;;14.57;;
37559;SDS011;23398;50.928;7.084;2023-11-21T11:36:03;20.35;;;14.35;;
37559;SDS011;23398;50.928;7.084;2023-11-21T11:38:36;19.48;;;13.57;;
37559;SDS011;23398;50.928;7.084;2023-11-21T11:41:02;23.55;;;15.07;;
37559;SDS011;23398;50.928;7.084;2023-11-21T11:43:29;23.25;;;14.13;;
37559;SDS011;23398;50.928;7.084;2023-11-21T11:45:57;22.23;;;14.52;;
37559;SDS011;23398;50.928;7.084;2023-11-21T11:48:24;21.38;;;13.00;;
37559;SDS011;23398;50.928;7.084;2023-11-21T11:53:43;19.63;;;12.25;;
37559;SDS011;23398;50.928;7.084;2023-11-21T11:58:47;20.27;;;12.30;;
37559;SDS011;23398;50.928;7.084;2023-11-21T12:01:13;20.95;;;12.85;;
37559;SDS011;23398;50.928;7.084;2023-11-21T12:03:38;20.60;;;12.35;;
37559;SDS011;23398;50.928;7.084;2023-11-21T12:06:04;17.42;;;11.45;;
37559;SDS011;23398;50.928;7.084;2023-11-21T12:08:31;18.08;;;12.50;;
37559;SDS011;23398;50.928;7.084;2023-11-21T12:10:57;17.83;;;11.85;;
37559;SDS011;23398;50.928;7.084;2023-11-21T12:13:23;19.52;;;12.05;;
37559;SDS011;23398;50.928;7.084;2023-11-21T12:15:49;18.17;;;11.63;;
37559;SDS011;23398;50.928;7.084;2023-11-21T12:18:15;17.98;;;11.18;;
37559;SDS011;23398;50.928;7.084;2023-11-21T12:20:41;21.90;;;11.60;;
37559;SDS011;23398;50.928;7.084;2023-11-21T12:23:07;19.42;;;11.55;;
37559;SDS011;23398;50.928;7.084;2023-11-21T12:25:34;17.27;;;11.43;;
37559;SDS011;23398;50.928;7.084;2023-11-21T12:28:02;15.82;;;11.15;;
37559;SDS011;23398;50.928;7.084;2023-11-21T12:30:28;20.15;;;12.40;;
37559;SDS011;23398;50.928;7.084;2023-11-21T12:33:00;21.30;;;14.40;;
37559;SDS011;23398;50.928;7.084;2023-11-21T12:35:27;19.95;;;13.40;;
37559;SDS011;23398;50.928;7.084;2023-11-21T12:37:55;19.50;;;12.57;;
37559;SDS011;23398;50.928;7.084;2023-11-21T12:40:24;18.95;;;11.55;;
37559;SDS011;23398;50.928;7.084;2023-11-21T12:42:53;16.80;;;11.23;;
37559;SDS011;23398;50.928;7.084;2023-11-21T12:45:22;16.83;;;11.38;;
37559;SDS011;23398;50.928;7.084;2023-11-21T12:47:48;22.42;;;11.43;;
37559;SDS011;23398;50.928;7.084;2023-11-21T12:50:15;18.65;;;11.75;;
37559;SDS011;23398;50.928;7.084;2023-11-21T12:52:46;16.30;;;11.55;;
37559;SDS011;23398;50.928;7.084;2023-11-21T12:55:13;16.80;;;12.05;;
37559;SDS011;23398;50.928;7.084;2023-11-21T12:57:43;17.52;;;11.20;;
37559;SDS011;23398;50.928;7.084;2023-11-21T13:00:09;14.82;;;10.45;;
37559;SDS011;23398;50.928;7.084;2023-11-21T13:02:41;16.92;;;11.25;;
37559;SDS011;23398;50.928;7.084;2023-11-21T13:05:07;17.42;;;11.38;;
37559;SDS011;23398;50.928;7.084;2023-11-21T13:07:43;16.52;;;10.75;;
37559;SDS011;23398;50.928;7.084;2023-11-21T13:10:13;18.17;;;11.20;;
37559;SDS011;23398;50.928;7.084;2023-11-21T13:12:45;17.80;;;11.13;;
37559;SDS011;23398;50.928;7.084;2023-11-21T13:15:16;18.60;;;11.35;;
37559;SDS011;23398;50.928;7.084;2023-11-21T13:17:43;19.70;;;11.27;;
37559;SDS011;23398;50.928;7.084;2023-11-21T13:20:10;16.45;;;11.27;;
37559;SDS011;23398;50.928;7.084;2023-11-21T13:22:44;16.73;;;10.32;;
37559;SDS011;23398;50.928;7.084;2023-11-21T13:25:24;16.45;;;10.45;;
37559;SDS011;23398;50.928;7.084;2023-11-21T13:27:53;15.98;;;10.20;;
37559;SDS011;23398;50.928;7.084;2023-11-21T13:30:19;16.98;;;11.13;;
37559;SDS011;23398;50.928;7.084;2023-11-21T13:32:55;22.10;;;10.60;;
37559;SDS011;23398;50.928;7.084;2023-11-21T13:35:22;17.10;;;10.95;;
37559;SDS011;23398;50.928;7.084;2023-11-21T13:37:57;15.25;;;10.13;;
37559;SDS011;23398;50.928;7.084;2023-11-21T13:40:28;16.92;;;10.52;;
37559;SDS011;23398;50.928;7.084;2023-11-21T13:42:54;17.75;;;10.52;;
37559;SDS011;23398;50.928;7.084;2023-11-21T13:45:22;18.83;;;10.43;;
37559;SDS011;23398;50.928;7.084;2023-11-21T13:47:49;16.95;;;9.82;;
37559;SDS011;23398;50.928;7.084;2023-11-21T13:50:25;18.23;;;10.40;;
37559;SDS011;23398;50.928;7.084;2023-11-21T13:53:01;15.30;;;9.60;;
37559;SDS011;23398;50.928;7.084;2023-11-21T13:55:46;16.08;;;9.45;;
37559;SDS011;23398;50.928;7.084;2023-11-21T13:58:14;17.17;;;10.48;;
37559;SDS011;23398;50.928;7.084;2023-11-21T14:00:47;14.82;;;9.43;;
37559;SDS011;23398;50.928;7.084;2023-11-21T14:03:14;14.07;;;8.68;;
37559;SDS011;23398;50.928;7.084;2023-11-21T14:05:47;15.13;;;8.70;;
37559;SDS011;23398;50.928;7.084;2023-11-21T14:08:16;13.15;;;8.48;;
37559;SDS011;23398;50.928;7.084;2023-11-21T14:10:45;13.02;;;9.02;;
37559;SDS011;23398;50.928;7.084;2023-11-21T14:13:15;13.77;;;8.80;;
37559;SDS011;23398;50.928;7.084;2023-11-21T14:15:42;16.75;;;10.50;;
37559;SDS011;23398;50.928;7.084;2023-11-21T14:18:10;17.25;;;9.40;;
37559;SDS011;23398;50.928;7.084;2023-11-21T14:20:39;17.65;;;10.60;;
37559;SDS011;23398;50.928;7.084;2023-11-21T14:23:06;14.85;;;9.20;;
37559;SDS011;23398;50.928;7.084;2023-11-21T14:25:33;16.52;;;9.75;;
37559;SDS011;23398;50.928;7.084;2023-11-21T14:27:59;15.73;;;9.93;;
37559;SDS011;23398;50.928;7.084;2023-11-21T14:30:25;14.90;;;9.10;;
37559;SDS011;23398;50.928;7.084;2023-11-21T14:32:52;16.80;;;10.80;;
37559;SDS011;23398;50.928;7.084;2023-11-21T14:35:18;18.67;;;9.48;;
37559;SDS011;23398;50.928;7.084;2023-11-21T14:37:44;15.90;;;10.02;;
37559;SDS011;23398;50.928;7.084;2023-11-21T14:40:11;18.40;;;10.32;;
37559;SDS011;23398;50.928;7.084;2023-11-21T14:42:37;17.08;;;10.13;;
37559;SDS011;23398;50.928;7.084;2023-11-21T14:45:04;16.52;;;9.95;;
37559;SDS011;23398;50.928;7.084;2023-11-21T14:47:32;16.98;;;9.00;;
37559;SDS011;23398;50.928;7.084;2023-11-21T14:49:59;16.80;;;9.75;;
37559;SDS011;23398;50.928;7.084;2023-11-21T14:52:37;15.80;;;10.15;;